sensor_id;sensor_type;location;lat;lon;timestamp;temperature;humidity
33988;DHT22;37428;53.580;-1.666;2022-07-26T00:02:21;15.50;76.40
33988;DHT22;37428;53.580;-1.666;2022-07-26T00:05:25;15.50;76.50
33988;DHT22;37428;53.580;-1.666;2022-07-26T00:08:41;15.40;77.20
33988;DHT22;37428;53.580;-1.666;2022-07-26T00:11:43;15.40;77.40
33988;DHT22;37428;53.580;-1.666;2022-07-26T00:14:45;15.40;77.10
33988;DHT22;37428;53.580;-1.666;2022-07-26T00:17:47;15.40;77.60
33988;DHT22;37428;53.580;-1.666;2022-07-26T00:20:59;15.50;78.00
33988;DHT22;37428;53.580;-1.666;2022-07-26T00:27:32;15.50;76.90
33988;DHT22;37428;53.580;-1.666;2022-07-26T00:30:36;15.40;77.40
33988;DHT22;37428;53.580;-1.666;2022-07-26T00:33:40;15.40;77.90
33988;DHT22;37428;53.580;-1.666;2022-07-26T00:37:06;15.40;77.80
33988;DHT22;37428;53.580;-1.666;2022-07-26T00:40:10;15.40;78.00
33988;DHT22;37428;53.580;-1.666;2022-07-26T00:43:19;15.40;78.00
33988;DHT22;37428;53.580;-1.666;2022-07-26T00:46:23;15.40;77.90
33988;DHT22;37428;53.580;-1.666;2022-07-26T00:49:28;15.40;78.00
33988;DHT22;37428;53.580;-1.666;2022-07-26T00:52:59;15.40;77.60
33988;DHT22;37428;53.580;-1.666;2022-07-26T00:56:04;15.40;77.70
33988;DHT22;37428;53.580;-1.666;2022-07-26T00:59:10;15.30;77.90
33988;DHT22;37428;53.580;-1.666;2022-07-26T01:02:31;15.30;78.20
33988;DHT22;37428;53.580;-1.666;2022-07-26T01:05:41;15.30;78.40
33988;DHT22;37428;53.580;-1.666;2022-07-26T01:08:44;15.40;78.10
33988;DHT22;37428;53.580;-1.666;2022-07-26T01:11:49;15.30;78.00
33988;DHT22;37428;53.580;-1.666;2022-07-26T01:15:02;15.40;78.30
33988;DHT22;37428;53.580;-1.666;2022-07-26T01:18:32;15.30;78.30
33988;DHT22;37428;53.580;-1.666;2022-07-26T01:21:45;15.30;78.10
33988;DHT22;37428;53.580;-1.666;2022-07-26T01:24:47;15.40;78.10
33988;DHT22;37428;53.580;-1.666;2022-07-26T01:27:49;15.40;77.80
33988;DHT22;37428;53.580;-1.666;2022-07-26T01:30:55;15.40;77.80
33988;DHT22;37428;53.580;-1.666;2022-07-26T01:34:04;15.40;77.40
33988;DHT22;37428;53.580;-1.666;2022-07-26T01:37:30;15.40;77.30
33988;DHT22;37428;53.580;-1.666;2022-07-26T01:40:34;15.40;76.80
33988;DHT22;37428;53.580;-1.666;2022-07-26T01:43:39;15.40;77.00
33988;DHT22;37428;53.580;-1.666;2022-07-26T01:46:58;15.30;77.00
33988;DHT22;37428;53.580;-1.666;2022-07-26T01:50:13;15.30;76.90
33988;DHT22;37428;53.580;-1.666;2022-07-26T01:53:32;15.30;77.80
33988;DHT22;37428;53.580;-1.666;2022-07-26T01:56:46;15.30;77.40
33988;DHT22;37428;53.580;-1.666;2022-07-26T01:59:49;15.30;77.30
33988;DHT22;37428;53.580;-1.666;2022-07-26T02:03:00;15.30;77.20
33988;DHT22;37428;53.580;-1.666;2022-07-26T02:10:16;15.20;77.90
33988;DHT22;37428;53.580;-1.666;2022-07-26T02:13:22;15.30;77.60
33988;DHT22;37428;53.580;-1.666;2022-07-26T02:17:19;15.30;76.90
33988;DHT22;37428;53.580;-1.666;2022-07-26T02:20:12;15.30;77.00
33988;DHT22;37428;53.580;-1.666;2022-07-26T02:23:48;15.20;76.80
33988;DHT22;37428;53.580;-1.666;2022-07-26T02:26:54;15.20;76.60
33988;DHT22;37428;53.580;-1.666;2022-07-26T02:29:58;15.10;77.60
33988;DHT22;37428;53.580;-1.666;2022-07-26T02:33:07;15.10;77.10
33988;DHT22;37428;53.580;-1.666;2022-07-26T02:36:13;15.00;76.80
33988;DHT22;37428;53.580;-1.666;2022-07-26T02:39:38;15.00;77.40
33988;DHT22;37428;53.580;-1.666;2022-07-26T02:43:01;15.00;78.60
33988;DHT22;37428;53.580;-1.666;2022-07-26T02:46:05;15.00;78.60
33988;DHT22;37428;53.580;-1.666;2022-07-26T02:49:13;15.00;79.40
33988;DHT22;37428;53.580;-1.666;2022-07-26T02:52:15;15.00;78.60
33988;DHT22;37428;53.580;-1.666;2022-07-26T02:55:21;15.00;78.80
33988;DHT22;37428;53.580;-1.666;2022-07-26T02:58:27;15.10;78.80
33988;DHT22;37428;53.580;-1.666;2022-07-26T03:01:35;15.10;78.60
33988;DHT22;37428;53.580;-1.666;2022-07-26T03:04:54;15.10;78.20
33988;DHT22;37428;53.580;-1.666;2022-07-26T03:07:59;15.10;78.10
33988;DHT22;37428;53.580;-1.666;2022-07-26T03:11:01;15.10;77.90
33988;DHT22;37428;53.580;-1.666;2022-07-26T03:14:07;15.10;77.80
33988;DHT22;37428;53.580;-1.666;2022-07-26T03:17:11;15.00;78.20
33988;DHT22;37428;53.580;-1.666;2022-07-26T03:20:31;15.00;78.20
33988;DHT22;37428;53.580;-1.666;2022-07-26T03:23:44;15.00;78.80
33988;DHT22;37428;53.580;-1.666;2022-07-26T03:26:47;15.00;78.50
33988;DHT22;37428;53.580;-1.666;2022-07-26T03:30:07;15.00;78.80
33988;DHT22;37428;53.580;-1.666;2022-07-26T03:33:09;15.00;79.20
33988;DHT22;37428;53.580;-1.666;2022-07-26T03:36:13;15.00;79.60
33988;DHT22;37428;53.580;-1.666;2022-07-26T03:39:29;14.90;79.80
33988;DHT22;37428;53.580;-1.666;2022-07-26T03:42:35;14.90;79.60
33988;DHT22;37428;53.580;-1.666;2022-07-26T03:45:48;14.90;79.60
33988;DHT22;37428;53.580;-1.666;2022-07-26T03:49:06;14.80;79.80
33988;DHT22;37428;53.580;-1.666;2022-07-26T03:52:24;14.70;80.90
33988;DHT22;37428;53.580;-1.666;2022-07-26T03:55:54;14.50;80.80
33988;DHT22;37428;53.580;-1.666;2022-07-26T03:59:22;14.50;80.70
33988;DHT22;37428;53.580;-1.666;2022-07-26T04:05:58;14.40;81.90
33988;DHT22;37428;53.580;-1.666;2022-07-26T04:10:06;14.30;81.90
33988;DHT22;37428;53.580;-1.666;2022-07-26T04:13:33;14.40;82.00
33988;DHT22;37428;53.580;-1.666;2022-07-26T04:16:28;14.30;82.80
33988;DHT22;37428;53.580;-1.666;2022-07-26T04:23:21;14.20;82.70
33988;DHT22;37428;53.580;-1.666;2022-07-26T04:26:58;14.20;83.20
33988;DHT22;37428;53.580;-1.666;2022-07-26T04:30:35;14.10;83.30
33988;DHT22;37428;53.580;-1.666;2022-07-26T04:33:51;14.10;83.60
33988;DHT22;37428;53.580;-1.666;2022-07-26T04:37:24;14.20;84.30
33988;DHT22;37428;53.580;-1.666;2022-07-26T04:40:52;14.10;84.40
33988;DHT22;37428;53.580;-1.666;2022-07-26T04:44:15;14.20;84.50
33988;DHT22;37428;53.580;-1.666;2022-07-26T04:49:10;14.20;84.80
33988;DHT22;37428;53.580;-1.666;2022-07-26T04:51:31;14.10;84.10
33988;DHT22;37428;53.580;-1.666;2022-07-26T04:54:34;14.10;84.40
33988;DHT22;37428;53.580;-1.666;2022-07-26T05:01:37;14.00;84.90
33988;DHT22;37428;53.580;-1.666;2022-07-26T05:05:11;14.00;84.40
33988;DHT22;37428;53.580;-1.666;2022-07-26T05:08:27;14.00;84.60
33988;DHT22;37428;53.580;-1.666;2022-07-26T05:12:08;14.00;85.20
33988;DHT22;37428;53.580;-1.666;2022-07-26T05:15:10;14.00;84.10
33988;DHT22;37428;53.580;-1.666;2022-07-26T05:18:17;14.10;84.20
33988;DHT22;37428;53.580;-1.666;2022-07-26T05:21:25;14.00;83.20
33988;DHT22;37428;53.580;-1.666;2022-07-26T05:24:38;14.00;83.50
33988;DHT22;37428;53.580;-1.666;2022-07-26T05:27:40;14.00;83.60
33988;DHT22;37428;53.580;-1.666;2022-07-26T05:30:49;14.10;83.60
33988;DHT22;37428;53.580;-1.666;2022-07-26T05:34:01;14.10;82.60
33988;DHT22;37428;53.580;-1.666;2022-07-26T05:37:29;14.10;83.50
33988;DHT22;37428;53.580;-1.666;2022-07-26T05:40:38;14.10;83.10
33988;DHT22;37428;53.580;-1.666;2022-07-26T05:44:21;14.10;83.30
33988;DHT22;37428;53.580;-1.666;2022-07-26T05:47:46;14.10;83.80
33988;DHT22;37428;53.580;-1.666;2022-07-26T05:54:43;14.20;84.10
33988;DHT22;37428;53.580;-1.666;2022-07-26T05:57:45;14.30;84.40
33988;DHT22;37428;53.580;-1.666;2022-07-26T06:01:15;14.30;83.40
33988;DHT22;37428;53.580;-1.666;2022-07-26T06:05:14;14.30;83.90
33988;DHT22;37428;53.580;-1.666;2022-07-26T06:08:30;14.30;83.70
33988;DHT22;37428;53.580;-1.666;2022-07-26T06:11:25;14.30;83.00
33988;DHT22;37428;53.580;-1.666;2022-07-26T06:14:27;14.30;82.60
33988;DHT22;37428;53.580;-1.666;2022-07-26T06:17:46;14.30;83.60
33988;DHT22;37428;53.580;-1.666;2022-07-26T06:20:49;14.30;83.50
33988;DHT22;37428;53.580;-1.666;2022-07-26T06:23:51;14.30;81.30
33988;DHT22;37428;53.580;-1.666;2022-07-26T06:27:34;14.20;81.90
33988;DHT22;37428;53.580;-1.666;2022-07-26T06:31:21;14.20;82.60
33988;DHT22;37428;53.580;-1.666;2022-07-26T06:34:21;14.10;81.30
33988;DHT22;37428;53.580;-1.666;2022-07-26T06:38:06;14.10;81.70
33988;DHT22;37428;53.580;-1.666;2022-07-26T06:41:53;14.10;82.20
33988;DHT22;37428;53.580;-1.666;2022-07-26T06:52:21;13.90;81.40
33988;DHT22;37428;53.580;-1.666;2022-07-26T06:55:34;14.00;83.20
33988;DHT22;37428;53.580;-1.666;2022-07-26T06:58:36;14.00;83.30
33988;DHT22;37428;53.580;-1.666;2022-07-26T07:01:38;13.60;84.00
33988;DHT22;37428;53.580;-1.666;2022-07-26T07:04:40;13.40;86.00
33988;DHT22;37428;53.580;-1.666;2022-07-26T07:07:45;13.40;87.00
33988;DHT22;37428;53.580;-1.666;2022-07-26T07:10:48;13.50;88.00
33988;DHT22;37428;53.580;-1.666;2022-07-26T07:13:50;13.50;86.60
33988;DHT22;37428;53.580;-1.666;2022-07-26T07:16:52;13.50;87.80
33988;DHT22;37428;53.580;-1.666;2022-07-26T07:19:54;13.70;88.20
33988;DHT22;37428;53.580;-1.666;2022-07-26T07:22:58;13.70;85.40
33988;DHT22;37428;53.580;-1.666;2022-07-26T07:26:00;13.70;86.50
33988;DHT22;37428;53.580;-1.666;2022-07-26T07:29:02;13.60;86.10
33988;DHT22;37428;53.580;-1.666;2022-07-26T07:32:05;13.50;85.50
33988;DHT22;37428;53.580;-1.666;2022-07-26T07:35:08;13.40;87.00
33988;DHT22;37428;53.580;-1.666;2022-07-26T07:38:13;13.30;87.90
33988;DHT22;37428;53.580;-1.666;2022-07-26T07:41:15;13.30;88.90
33988;DHT22;37428;53.580;-1.666;2022-07-26T07:44:18;13.30;86.70
33988;DHT22;37428;53.580;-1.666;2022-07-26T07:47:20;13.20;88.80
33988;DHT22;37428;53.580;-1.666;2022-07-26T07:50:23;13.10;88.20
33988;DHT22;37428;53.580;-1.666;2022-07-26T07:53:26;13.20;89.40
33988;DHT22;37428;53.580;-1.666;2022-07-26T07:56:29;13.40;91.00
33988;DHT22;37428;53.580;-1.666;2022-07-26T07:59:31;13.50;90.60
33988;DHT22;37428;53.580;-1.666;2022-07-26T08:02:33;13.60;90.00
33988;DHT22;37428;53.580;-1.666;2022-07-26T08:05:35;13.70;90.00
33988;DHT22;37428;53.580;-1.666;2022-07-26T08:08:39;13.60;89.90
33988;DHT22;37428;53.580;-1.666;2022-07-26T08:11:41;13.70;90.40
33988;DHT22;37428;53.580;-1.666;2022-07-26T08:14:44;13.70;89.30
33988;DHT22;37428;53.580;-1.666;2022-07-26T08:17:47;13.90;89.30
33988;DHT22;37428;53.580;-1.666;2022-07-26T08:20:49;14.00;88.30
33988;DHT22;37428;53.580;-1.666;2022-07-26T08:23:53;14.10;88.60
33988;DHT22;37428;53.580;-1.666;2022-07-26T08:26:55;14.10;89.20
33988;DHT22;37428;53.580;-1.666;2022-07-26T08:29:57;14.10;88.40
33988;DHT22;37428;53.580;-1.666;2022-07-26T08:33:00;14.00;88.80
33988;DHT22;37428;53.580;-1.666;2022-07-26T08:36:02;13.90;89.40
33988;DHT22;37428;53.580;-1.666;2022-07-26T08:39:06;14.00;90.10
33988;DHT22;37428;53.580;-1.666;2022-07-26T08:42:13;14.10;87.40
33988;DHT22;37428;53.580;-1.666;2022-07-26T08:45:22;14.10;90.20
33988;DHT22;37428;53.580;-1.666;2022-07-26T08:48:25;14.30;89.30
33988;DHT22;37428;53.580;-1.666;2022-07-26T08:51:27;14.40;89.40
33988;DHT22;37428;53.580;-1.666;2022-07-26T08:54:31;14.70;88.50
33988;DHT22;37428;53.580;-1.666;2022-07-26T08:57:33;14.80;87.60
33988;DHT22;37428;53.580;-1.666;2022-07-26T09:00:38;14.90;87.10
33988;DHT22;37428;53.580;-1.666;2022-07-26T09:03:41;14.90;85.60
33988;DHT22;37428;53.580;-1.666;2022-07-26T09:06:53;14.80;84.50
33988;DHT22;37428;53.580;-1.666;2022-07-26T09:09:59;14.80;84.80
33988;DHT22;37428;53.580;-1.666;2022-07-26T09:13:01;14.80;85.30
33988;DHT22;37428;53.580;-1.666;2022-07-26T09:16:08;14.90;87.10
33988;DHT22;37428;53.580;-1.666;2022-07-26T09:19:16;15.10;86.60
33988;DHT22;37428;53.580;-1.666;2022-07-26T09:22:18;15.40;83.80
33988;DHT22;37428;53.580;-1.666;2022-07-26T09:25:23;15.70;83.50
33988;DHT22;37428;53.580;-1.666;2022-07-26T09:28:27;15.80;80.50
33988;DHT22;37428;53.580;-1.666;2022-07-26T09:31:30;15.90;79.20
33988;DHT22;37428;53.580;-1.666;2022-07-26T09:34:32;15.80;78.80
33988;DHT22;37428;53.580;-1.666;2022-07-26T09:37:36;15.70;78.30
33988;DHT22;37428;53.580;-1.666;2022-07-26T09:40:43;15.70;78.70
33988;DHT22;37428;53.580;-1.666;2022-07-26T09:43:46;15.70;78.90
33988;DHT22;37428;53.580;-1.666;2022-07-26T09:46:52;15.70;79.70
33988;DHT22;37428;53.580;-1.666;2022-07-26T09:50:12;15.70;83.30
33988;DHT22;37428;53.580;-1.666;2022-07-26T09:53:14;15.60;84.20
33988;DHT22;37428;53.580;-1.666;2022-07-26T09:56:18;15.70;85.10
33988;DHT22;37428;53.580;-1.666;2022-07-26T09:59:21;15.60;81.20
33988;DHT22;37428;53.580;-1.666;2022-07-26T10:02:28;15.40;79.30
33988;DHT22;37428;53.580;-1.666;2022-07-26T10:05:31;15.30;81.80
33988;DHT22;37428;53.580;-1.666;2022-07-26T10:08:33;15.10;81.70
33988;DHT22;37428;53.580;-1.666;2022-07-26T10:11:41;15.00;82.20
33988;DHT22;37428;53.580;-1.666;2022-07-26T10:14:44;14.90;83.30
33988;DHT22;37428;53.580;-1.666;2022-07-26T10:17:47;15.00;83.60
33988;DHT22;37428;53.580;-1.666;2022-07-26T10:20:50;15.00;83.20
33988;DHT22;37428;53.580;-1.666;2022-07-26T10:23:53;15.10;84.10
33988;DHT22;37428;53.580;-1.666;2022-07-26T10:26:59;15.30;85.00
33988;DHT22;37428;53.580;-1.666;2022-07-26T10:30:24;15.50;82.70
33988;DHT22;37428;53.580;-1.666;2022-07-26T10:33:27;15.70;83.60
33988;DHT22;37428;53.580;-1.666;2022-07-26T10:36:34;15.70;80.30
33988;DHT22;37428;53.580;-1.666;2022-07-26T10:39:37;15.80;81.50
33988;DHT22;37428;53.580;-1.666;2022-07-26T10:42:44;15.90;80.50
33988;DHT22;37428;53.580;-1.666;2022-07-26T10:45:47;16.30;81.50
33988;DHT22;37428;53.580;-1.666;2022-07-26T10:48:56;17.20;76.10
33988;DHT22;37428;53.580;-1.666;2022-07-26T10:52:12;17.70;72.60
33988;DHT22;37428;53.580;-1.666;2022-07-26T10:55:17;18.40;70.80
33988;DHT22;37428;53.580;-1.666;2022-07-26T10:58:41;19.50;64.70
33988;DHT22;37428;53.580;-1.666;2022-07-26T11:01:49;20.50;61.80
33988;DHT22;37428;53.580;-1.666;2022-07-26T11:05:00;21.10;60.90
33988;DHT22;37428;53.580;-1.666;2022-07-26T11:08:07;21.50;60.50
33988;DHT22;37428;53.580;-1.666;2022-07-26T11:11:10;21.90;58.50
33988;DHT22;37428;53.580;-1.666;2022-07-26T11:14:14;22.00;59.30
33988;DHT22;37428;53.580;-1.666;2022-07-26T11:17:23;21.40;56.90
33988;DHT22;37428;53.580;-1.666;2022-07-26T11:20:25;20.80;57.40
33988;DHT22;37428;53.580;-1.666;2022-07-26T11:23:32;20.20;59.00
33988;DHT22;37428;53.580;-1.666;2022-07-26T11:26:39;19.80;60.50
33988;DHT22;37428;53.580;-1.666;2022-07-26T11:29:43;19.40;60.20
33988;DHT22;37428;53.580;-1.666;2022-07-26T11:32:51;19.70;63.60
33988;DHT22;37428;53.580;-1.666;2022-07-26T11:35:53;20.50;57.70
33988;DHT22;37428;53.580;-1.666;2022-07-26T11:38:55;21.00;56.70
33988;DHT22;37428;53.580;-1.666;2022-07-26T11:42:00;21.30;54.70
33988;DHT22;37428;53.580;-1.666;2022-07-26T11:45:08;21.50;53.70
33988;DHT22;37428;53.580;-1.666;2022-07-26T11:48:11;21.50;57.40
33988;DHT22;37428;53.580;-1.666;2022-07-26T11:51:14;21.00;56.00
33988;DHT22;37428;53.580;-1.666;2022-07-26T11:54:16;20.60;58.40
33988;DHT22;37428;53.580;-1.666;2022-07-26T11:57:19;20.30;61.40
33988;DHT22;37428;53.580;-1.666;2022-07-26T12:00:24;20.50;61.40
33988;DHT22;37428;53.580;-1.666;2022-07-26T12:03:26;20.80;61.60
33988;DHT22;37428;53.580;-1.666;2022-07-26T12:06:37;21.40;60.40
33988;DHT22;37428;53.580;-1.666;2022-07-26T12:09:40;21.60;56.80
33988;DHT22;37428;53.580;-1.666;2022-07-26T12:12:43;21.60;56.80
33988;DHT22;37428;53.580;-1.666;2022-07-26T12:15:48;21.50;57.30
33988;DHT22;37428;53.580;-1.666;2022-07-26T12:18:51;22.10;56.20
33988;DHT22;37428;53.580;-1.666;2022-07-26T12:21:55;22.70;55.50
33988;DHT22;37428;53.580;-1.666;2022-07-26T12:24:57;23.20;53.70
33988;DHT22;37428;53.580;-1.666;2022-07-26T12:28:01;22.90;48.40
33988;DHT22;37428;53.580;-1.666;2022-07-26T12:31:26;22.80;50.90
33988;DHT22;37428;53.580;-1.666;2022-07-26T12:34:29;23.10;45.90
33988;DHT22;37428;53.580;-1.666;2022-07-26T12:37:31;23.30;47.60
33988;DHT22;37428;53.580;-1.666;2022-07-26T12:40:39;23.60;47.00
33988;DHT22;37428;53.580;-1.666;2022-07-26T12:43:42;23.50;49.50
33988;DHT22;37428;53.580;-1.666;2022-07-26T12:46:45;23.50;45.70
33988;DHT22;37428;53.580;-1.666;2022-07-26T12:49:48;23.40;45.50
33988;DHT22;37428;53.580;-1.666;2022-07-26T12:52:50;22.80;46.40
33988;DHT22;37428;53.580;-1.666;2022-07-26T12:55:53;22.20;49.70
33988;DHT22;37428;53.580;-1.666;2022-07-26T12:58:55;21.80;51.80
33988;DHT22;37428;53.580;-1.666;2022-07-26T13:02:03;21.30;51.40
33988;DHT22;37428;53.580;-1.666;2022-07-26T13:05:08;21.00;52.70
33988;DHT22;37428;53.580;-1.666;2022-07-26T13:08:10;20.60;52.80
33988;DHT22;37428;53.580;-1.666;2022-07-26T13:11:16;20.40;52.00
33988;DHT22;37428;53.580;-1.666;2022-07-26T13:14:19;20.30;53.80
33988;DHT22;37428;53.580;-1.666;2022-07-26T13:17:22;20.10;51.80
33988;DHT22;37428;53.580;-1.666;2022-07-26T13:20:25;20.00;55.40
33988;DHT22;37428;53.580;-1.666;2022-07-26T13:23:27;20.00;53.80
33988;DHT22;37428;53.580;-1.666;2022-07-26T13:26:29;20.30;52.60
33988;DHT22;37428;53.580;-1.666;2022-07-26T13:29:32;20.40;55.60
33988;DHT22;37428;53.580;-1.666;2022-07-26T13:32:36;20.50;52.80
33988;DHT22;37428;53.580;-1.666;2022-07-26T13:35:38;20.80;53.20
33988;DHT22;37428;53.580;-1.666;2022-07-26T13:38:42;21.00;49.20
33988;DHT22;37428;53.580;-1.666;2022-07-26T13:41:44;20.90;50.80
33988;DHT22;37428;53.580;-1.666;2022-07-26T13:44:46;20.90;54.10
33988;DHT22;37428;53.580;-1.666;2022-07-26T13:47:50;20.80;51.80
33988;DHT22;37428;53.580;-1.666;2022-07-26T13:50:53;21.00;52.90
33988;DHT22;37428;53.580;-1.666;2022-07-26T13:53:55;21.00;50.60
33988;DHT22;37428;53.580;-1.666;2022-07-26T13:56:58;21.00;52.10
33988;DHT22;37428;53.580;-1.666;2022-07-26T14:00:01;21.20;53.30
33988;DHT22;37428;53.580;-1.666;2022-07-26T14:03:05;21.10;52.80
33988;DHT22;37428;53.580;-1.666;2022-07-26T14:06:07;20.90;52.30
33988;DHT22;37428;53.580;-1.666;2022-07-26T14:09:11;20.50;53.70
33988;DHT22;37428;53.580;-1.666;2022-07-26T14:12:13;20.00;55.00
33988;DHT22;37428;53.580;-1.666;2022-07-26T14:15:15;19.60;56.20
33988;DHT22;37428;53.580;-1.666;2022-07-26T14:18:19;19.60;55.80
33988;DHT22;37428;53.580;-1.666;2022-07-26T14:21:22;19.60;56.00
33988;DHT22;37428;53.580;-1.666;2022-07-26T14:24:24;19.60;56.70
33988;DHT22;37428;53.580;-1.666;2022-07-26T14:27:26;19.70;56.00
33988;DHT22;37428;53.580;-1.666;2022-07-26T14:30:28;19.70;56.70
33988;DHT22;37428;53.580;-1.666;2022-07-26T14:33:33;19.80;56.30
33988;DHT22;37428;53.580;-1.666;2022-07-26T14:36:35;20.10;57.30
33988;DHT22;37428;53.580;-1.666;2022-07-26T14:39:38;20.10;55.20
33988;DHT22;37428;53.580;-1.666;2022-07-26T14:42:40;20.00;55.00
33988;DHT22;37428;53.580;-1.666;2022-07-26T14:45:42;19.90;55.60
33988;DHT22;37428;53.580;-1.666;2022-07-26T14:48:49;20.00;57.40
33988;DHT22;37428;53.580;-1.666;2022-07-26T14:51:51;19.80;58.60
33988;DHT22;37428;53.580;-1.666;2022-07-26T14:54:55;19.60;60.00
33988;DHT22;37428;53.580;-1.666;2022-07-26T14:57:57;19.50;59.60
33988;DHT22;37428;53.580;-1.666;2022-07-26T15:00:59;19.50;60.10
33988;DHT22;37428;53.580;-1.666;2022-07-26T15:04:03;19.60;61.00
33988;DHT22;37428;53.580;-1.666;2022-07-26T15:07:06;19.80;58.80
33988;DHT22;37428;53.580;-1.666;2022-07-26T15:10:10;19.90;56.30
33988;DHT22;37428;53.580;-1.666;2022-07-26T15:13:13;20.00;56.50
33988;DHT22;37428;53.580;-1.666;2022-07-26T15:16:16;20.00;55.20
33988;DHT22;37428;53.580;-1.666;2022-07-26T15:19:19;20.10;54.90
33988;DHT22;37428;53.580;-1.666;2022-07-26T15:22:22;20.10;55.80
33988;DHT22;37428;53.580;-1.666;2022-07-26T15:25:24;20.00;55.20
33988;DHT22;37428;53.580;-1.666;2022-07-26T15:28:26;20.20;55.50
33988;DHT22;37428;53.580;-1.666;2022-07-26T15:31:29;20.00;54.60
33988;DHT22;37428;53.580;-1.666;2022-07-26T15:34:32;20.00;55.10
33988;DHT22;37428;53.580;-1.666;2022-07-26T15:37:35;20.00;56.00
33988;DHT22;37428;53.580;-1.666;2022-07-26T15:40:37;19.80;54.90
33988;DHT22;37428;53.580;-1.666;2022-07-26T15:43:39;19.80;55.10
33988;DHT22;37428;53.580;-1.666;2022-07-26T15:46:42;19.50;55.90
33988;DHT22;37428;53.580;-1.666;2022-07-26T15:49:55;19.20;57.10
33988;DHT22;37428;53.580;-1.666;2022-07-26T15:52:57;19.00;58.50
33988;DHT22;37428;53.580;-1.666;2022-07-26T15:56:00;18.80;58.70
33988;DHT22;37428;53.580;-1.666;2022-07-26T15:59:04;18.60;60.40
33988;DHT22;37428;53.580;-1.666;2022-07-26T16:02:07;18.50;61.40
33988;DHT22;37428;53.580;-1.666;2022-07-26T16:05:14;18.30;63.20
33988;DHT22;37428;53.580;-1.666;2022-07-26T16:08:18;18.30;64.70
33988;DHT22;37428;53.580;-1.666;2022-07-26T16:11:35;18.20;64.60
33988;DHT22;37428;53.580;-1.666;2022-07-26T16:14:37;18.20;64.60
33988;DHT22;37428;53.580;-1.666;2022-07-26T16:17:39;17.90;63.20
33988;DHT22;37428;53.580;-1.666;2022-07-26T16:20:43;17.80;64.00
33988;DHT22;37428;53.580;-1.666;2022-07-26T16:23:46;17.80;65.70
33988;DHT22;37428;53.580;-1.666;2022-07-26T16:26:50;17.90;67.80
33988;DHT22;37428;53.580;-1.666;2022-07-26T16:29:53;17.80;69.90
33988;DHT22;37428;53.580;-1.666;2022-07-26T16:32:57;17.70;70.00
33988;DHT22;37428;53.580;-1.666;2022-07-26T16:36:00;17.60;71.00
33988;DHT22;37428;53.580;-1.666;2022-07-26T16:39:04;17.60;72.30
33988;DHT22;37428;53.580;-1.666;2022-07-26T16:42:07;17.70;72.20
33988;DHT22;37428;53.580;-1.666;2022-07-26T16:45:09;17.50;72.20
33988;DHT22;37428;53.580;-1.666;2022-07-26T16:48:12;17.40;72.70
33988;DHT22;37428;53.580;-1.666;2022-07-26T16:51:15;17.40;72.60
33988;DHT22;37428;53.580;-1.666;2022-07-26T16:54:18;17.50;71.20
33988;DHT22;37428;53.580;-1.666;2022-07-26T16:57:20;17.50;72.10
33988;DHT22;37428;53.580;-1.666;2022-07-26T17:00:23;17.60;73.00
33988;DHT22;37428;53.580;-1.666;2022-07-26T17:03:25;17.50;71.80
33988;DHT22;37428;53.580;-1.666;2022-07-26T17:06:31;17.60;71.50
33988;DHT22;37428;53.580;-1.666;2022-07-26T17:09:33;17.60;72.30
33988;DHT22;37428;53.580;-1.666;2022-07-26T17:12:35;17.50;71.80
33988;DHT22;37428;53.580;-1.666;2022-07-26T17:15:38;17.40;72.90
33988;DHT22;37428;53.580;-1.666;2022-07-26T17:18:42;17.40;73.80
33988;DHT22;37428;53.580;-1.666;2022-07-26T17:21:45;17.40;73.90
33988;DHT22;37428;53.580;-1.666;2022-07-26T17:24:48;17.20;74.30
33988;DHT22;37428;53.580;-1.666;2022-07-26T17:27:50;17.10;75.30
33988;DHT22;37428;53.580;-1.666;2022-07-26T17:30:52;16.70;74.90
33988;DHT22;37428;53.580;-1.666;2022-07-26T17:33:54;16.60;76.60
33988;DHT22;37428;53.580;-1.666;2022-07-26T17:36:59;16.50;79.00
33988;DHT22;37428;53.580;-1.666;2022-07-26T17:40:03;16.60;80.20
33988;DHT22;37428;53.580;-1.666;2022-07-26T17:43:06;16.60;81.30
33988;DHT22;37428;53.580;-1.666;2022-07-26T17:46:08;16.50;81.30
33988;DHT22;37428;53.580;-1.666;2022-07-26T17:49:10;16.60;81.40
33988;DHT22;37428;53.580;-1.666;2022-07-26T17:52:14;16.50;80.90
33988;DHT22;37428;53.580;-1.666;2022-07-26T17:55:17;16.50;81.20
33988;DHT22;37428;53.580;-1.666;2022-07-26T17:58:21;16.40;81.80
33988;DHT22;37428;53.580;-1.666;2022-07-26T18:01:23;16.20;82.30
33988;DHT22;37428;53.580;-1.666;2022-07-26T18:04:26;16.20;83.70
33988;DHT22;37428;53.580;-1.666;2022-07-26T18:07:29;16.10;84.20
33988;DHT22;37428;53.580;-1.666;2022-07-26T18:10:32;16.10;84.40
33988;DHT22;37428;53.580;-1.666;2022-07-26T18:13:34;15.90;83.90
33988;DHT22;37428;53.580;-1.666;2022-07-26T18:16:38;16.00;85.90
33988;DHT22;37428;53.580;-1.666;2022-07-26T18:19:41;15.90;84.90
33988;DHT22;37428;53.580;-1.666;2022-07-26T18:22:44;15.90;85.50
33988;DHT22;37428;53.580;-1.666;2022-07-26T18:25:47;15.80;85.00
33988;DHT22;37428;53.580;-1.666;2022-07-26T18:28:49;15.80;85.30
33988;DHT22;37428;53.580;-1.666;2022-07-26T18:31:52;15.80;85.70
33988;DHT22;37428;53.580;-1.666;2022-07-26T18:34:58;15.80;85.70
33988;DHT22;37428;53.580;-1.666;2022-07-26T18:38:02;15.80;85.80
33988;DHT22;37428;53.580;-1.666;2022-07-26T18:41:04;15.80;86.50
33988;DHT22;37428;53.580;-1.666;2022-07-26T18:44:06;15.80;86.20
33988;DHT22;37428;53.580;-1.666;2022-07-26T18:47:08;15.70;85.70
33988;DHT22;37428;53.580;-1.666;2022-07-26T18:50:11;15.60;87.20
33988;DHT22;37428;53.580;-1.666;2022-07-26T18:53:14;15.60;87.10
33988;DHT22;37428;53.580;-1.666;2022-07-26T18:56:16;15.50;87.50
33988;DHT22;37428;53.580;-1.666;2022-07-26T18:59:19;15.50;87.70
33988;DHT22;37428;53.580;-1.666;2022-07-26T19:02:23;15.50;86.10
33988;DHT22;37428;53.580;-1.666;2022-07-26T19:05:25;15.50;85.10
33988;DHT22;37428;53.580;-1.666;2022-07-26T19:08:29;15.50;84.10
33988;DHT22;37428;53.580;-1.666;2022-07-26T19:11:32;15.30;83.10
33988;DHT22;37428;53.580;-1.666;2022-07-26T19:14:34;15.20;80.80
33988;DHT22;37428;53.580;-1.666;2022-07-26T19:17:36;15.20;80.00
33988;DHT22;37428;53.580;-1.666;2022-07-26T19:20:38;15.20;80.00
33988;DHT22;37428;53.580;-1.666;2022-07-26T19:23:42;15.20;80.20
33988;DHT22;37428;53.580;-1.666;2022-07-26T19:26:44;15.20;80.20
33988;DHT22;37428;53.580;-1.666;2022-07-26T19:29:46;15.10;78.90
33988;DHT22;37428;53.580;-1.666;2022-07-26T19:32:49;15.10;79.30
33988;DHT22;37428;53.580;-1.666;2022-07-26T19:35:51;14.90;80.00
33988;DHT22;37428;53.580;-1.666;2022-07-26T19:38:55;15.00;80.20
33988;DHT22;37428;53.580;-1.666;2022-07-26T19:42:00;15.00;80.90
33988;DHT22;37428;53.580;-1.666;2022-07-26T19:45:03;15.00;79.00
33988;DHT22;37428;53.580;-1.666;2022-07-26T19:48:06;14.90;78.80
33988;DHT22;37428;53.580;-1.666;2022-07-26T19:51:08;14.80;78.50
33988;DHT22;37428;53.580;-1.666;2022-07-26T19:54:12;14.90;79.50